Terminal Aerodrome Forecast
Issued by NWS

Home | Current Version | Previous Version | Text Only | Print | Product List | Glossary On
Versions: 1 2 3 4 5 6 7 8 9 10 11 12
000
FTUS43 KOAX 180500
TAFCDR
TAF
KCDR 180525Z 1806/1906 10006KT P6SM FEW120
     FM181100 18004KT P6SM SCT007
     FM181300 17007KT P6SM BKN012
     FM181500 18008KT P6SM SCT020
     FM181600 18010KT P6SM SKC=

USA.gov is the U.S. government's official web portal to all federal, state and local government web resources and services.